Time;durP1;ratioP1;P1;durP2;ratioP2;P2;SDS_P1;SDS_P2;PMS_P1;PMS_P2;Temp;Humidity;BMP_temperature;BMP_pressure;BME280_temperature;BME280_humidity;BME280_pressure;Samples;Min_cycle;Max_cycle;Signal;HPM_P1;HPM_P2
2022/09/01 00:02:07;;;;;;;3.07;1.93;;;24.90;54.60;;;;;;4978826;28;20438;-72
2022/09/01 00:04:39;;;;;;;2.03;1.83;;;24.90;54.60;;;;;;4972417;28;20446;-72
2022/09/01 00:07:09;;;;;;;1.77;1.67;;;24.90;54.70;;;;;;4980664;28;20465;-73
2022/09/01 00:09:36;;;;;;;4.33;1.90;;;24.90;54.70;;;;;;4955601;28;20450;-72
2022/09/01 00:12:07;;;;;;;1.70;1.60;;;24.90;54.70;;;;;;4953303;28;20423;-73
2022/09/01 00:14:38;;;;;;;2.30;1.87;;;24.90;54.70;;;;;;4968788;28;20445;-72
2022/09/01 00:17:12;;;;;;;2.80;1.70;;;24.90;54.70;;;;;;4952296;29;20489;-72
2022/09/01 00:19:38;;;;;;;2.93;1.80;;;24.90;54.80;;;;;;4968130;28;20477;-69
2022/09/01 00:22:06;;;;;;;2.00;1.53;;;24.80;54.80;;;;;;4972224;28;20434;-70
2022/09/01 00:24:32;;;;;;;2.20;1.60;;;24.80;54.80;;;;;;4972173;28;20440;-69
2022/09/01 00:27:03;;;;;;;5.33;1.90;;;24.80;55.40;;;;;;4980056;28;20500;-71
2022/09/01 00:29:31;;;;;;;2.50;1.70;;;24.80;54.80;;;;;;4976504;28;20406;-71
2022/09/01 00:32:00;;;;;;;2.27;1.80;;;24.80;54.90;;;;;;4976279;28;20402;-71
2022/09/01 00:34:25;;;;;;;1.93;1.70;;;24.80;54.90;;;;;;4976271;28;20472;-71
2022/09/01 00:36:52;;;;;;;2.00;1.80;;;24.80;54.90;;;;;;4960412;28;20457;-71
2022/09/01 00:39:18;;;;;;;2.53;1.83;;;24.70;54.90;;;;;;4977438;28;20433;-71
2022/09/01 00:41:46;;;;;;;2.00;1.50;;;24.80;55.00;;;;;;4976415;28;20426;-71
2022/09/01 00:44:18;;;;;;;3.20;1.67;;;24.70;54.90;;;;;;4966971;28;20986;-71
2022/09/01 00:46:48;;;;;;;2.37;2.13;;;24.70;55.00;;;;;;4995683;28;20476;-71
2022/09/01 00:49:40;;;;;;;2.10;1.50;;;24.70;55.00;;;;;;4995756;28;20394;-71
2022/09/01 00:52:12;;;;;;;2.10;1.70;;;24.70;55.00;;;;;;4979596;28;20842;-71
2022/09/01 00:54:46;;;;;;;2.00;1.67;;;24.70;55.00;;;;;;4996502;28;20429;-70
2022/09/01 00:57:14;;;;;;;1.60;1.50;;;24.70;55.10;;;;;;4995331;28;20456;-71
2022/09/01 00:59:50;;;;;;;3.00;1.97;;;24.70;55.10;;;;;;4995463;28;20416;-71
2022/09/01 01:02:19;;;;;;;2.13;1.93;;;24.70;55.10;;;;;;4995412;28;20405;-71
2022/09/01 01:04:45;;;;;;;1.60;1.50;;;24.60;55.10;;;;;;4978872;28;20499;-71
2022/09/01 01:07:17;;;;;;;2.00;1.50;;;24.60;55.20;;;;;;4995170;28;20460;-71
2022/09/01 01:09:44;;;;;;;2.07;1.73;;;24.60;55.20;;;;;;4995316;28;20527;-71
2022/09/01 01:12:12;;;;;;;2.70;1.50;;;24.60;55.20;;;;;;4996242;28;20417;-71
2022/09/01 01:14:41;;;;;;;1.50;1.40;;;24.60;55.30;;;;;;4979180;28;20465;-71
2022/09/01 01:17:09;;;;;;;2.30;1.80;;;24.60;55.30;;;;;;4956367;28;20427;-71
2022/09/01 01:23:01;;;;;;;1.73;1.50;;;24.50;55.20;;;;;;4956328;29;20506;-71
2022/09/01 01:26:09;;;;;;;1.93;1.80;;;24.50;55.30;;;;;;4973522;28;20435;-71
2022/09/01 01:28:40;;;;;;;5.60;1.83;;;24.50;55.40;;;;;;4983729;28;20437;-71
2022/09/01 01:31:14;;;;;;;1.87;1.60;;;24.50;55.40;;;;;;4978653;28;20472;-71
2022/09/01 01:34:00;;;;;;;2.90;1.57;;;24.50;55.50;;;;;;4978727;28;20481;-71
2022/09/01 01:36:35;;;;;;;1.70;1.53;;;24.50;55.50;;;;;;4983413;28;20414;-71
2022/09/01 01:39:09;;;;;;;2.00;1.80;;;24.50;55.50;;;;;;4958946;28;20782;-71
2022/09/01 01:41:39;;;;;;;3.73;1.63;;;24.40;55.40;;;;;;4972896;28;20457;-71
2022/09/01 01:44:10;;;;;;;3.13;1.80;;;24.50;55.60;;;;;;4975834;28;20443;-71
2022/09/01 01:46:44;;;;;;;2.40;1.80;;;24.40;55.50;;;;;;4978274;28;20473;-71
2022/09/01 01:49:18;;;;;;;3.70;1.93;;;24.40;55.50;;;;;;4978289;28;20424;-71
2022/09/01 01:51:48;;;;;;;1.80;1.50;;;24.40;55.50;;;;;;4962370;28;20420;-71
2022/09/01 01:54:16;;;;;;;2.30;1.77;;;24.40;55.60;;;;;;4964557;28;20462;-71
2022/09/01 01:56:42;;;;;;;2.27;1.70;;;24.40;55.60;;;;;;4955553;29;20416;-71
2022/09/01 01:59:15;;;;;;;1.93;1.63;;;24.40;55.60;;;;;;4939733;29;20427;-71
2022/09/01 02:01:50;;;;;;;1.70;1.60;;;24.40;55.70;;;;;;4939814;29;20423;-71
2022/09/01 02:04:42;;;;;;;1.70;1.57;;;24.40;55.70;;;;;;4955752;29;20789;-71
2022/09/01 02:07:15;;;;;;;3.20;1.70;;;24.40;55.70;;;;;;4960022;28;20817;-71
2022/09/01 02:09:45;;;;;;;3.50;1.90;;;24.40;55.70;;;;;;4981679;28;20422;-71
2022/09/01 02:12:17;;;;;;;3.83;1.67;;;24.30;55.70;;;;;;4974740;28;20450;-71
2022/09/01 02:14:48;;;;;;;2.07;1.87;;;24.30;55.70;;;;;;4958699;28;20593;-71
2022/09/01 02:17:16;;;;;;;4.50;1.80;;;24.30;55.70;;;;;;4974481;28;20434;-71
2022/09/01 02:19:47;;;;;;;1.87;1.70;;;24.30;55.80;;;;;;4974769;28;20437;-71
2022/09/01 02:22:18;;;;;;;4.10;1.87;;;24.30;55.80;;;;;;4986276;28;20417;-71
2022/09/01 02:24:47;;;;;;;2.80;2.00;;;24.30;55.80;;;;;;4977624;28;20980;-71
2022/09/01 02:27:20;;;;;;;2.20;1.70;;;24.30;55.80;;;;;;4983450;28;20555;-71
2022/09/01 02:29:49;;;;;;;2.83;1.77;;;24.30;55.90;;;;;;4974163;28;20438;-71
2022/09/01 02:32:18;;;;;;;3.40;1.77;;;24.20;55.90;;;;;;4974265;28;20398;-71
2022/09/01 02:34:44;;;;;;;2.00;1.67;;;24.20;55.90;;;;;;4974112;28;20521;-71
2022/09/01 02:37:11;;;;;;;2.60;2.03;;;24.20;55.90;;;;;;4954635;29;20550;-70
2022/09/01 02:39:41;;;;;;;1.90;1.63;;;24.20;55.90;;;;;;4954729;29;20463;-71
2022/09/01 02:42:13;;;;;;;2.17;1.93;;;24.20;55.90;;;;;;4973992;28;20453;-71
2022/09/01 02:44:42;;;;;;;2.30;2.07;;;24.20;56.00;;;;;;4977236;28;20544;-71
2022/09/01 02:47:10;;;;;;;2.90;1.87;;;24.20;56.00;;;;;;4977167;28;20465;-70
2022/09/01 02:49:41;;;;;;;1.80;1.70;;;24.20;56.00;;;;;;4977048;28;20450;-70
2022/09/01 02:52:07;;;;;;;1.90;1.70;;;24.20;56.00;;;;;;4993284;28;20918;-71
2022/09/01 02:54:37;;;;;;;1.97;1.77;;;24.20;56.00;;;;;;4981286;28;20461;-71
2022/09/01 02:57:03;;;;;;;1.87;1.77;;;24.10;56.00;;;;;;4973765;28;20402;-71
2022/09/01 02:59:29;;;;;;;2.10;1.90;;;24.10;56.00;;;;;;4974213;28;20484;-71
2022/09/01 03:02:00;;;;;;;2.00;1.80;;;24.10;56.00;;;;;;4973477;28;20446;-71
2022/09/01 03:04:26;;;;;;;3.00;1.67;;;24.10;56.00;;;;;;4954208;29;20487;-71
2022/09/01 03:06:53;;;;;;;1.83;1.60;;;24.10;56.10;;;;;;4973402;28;20458;-71
2022/09/01 03:09:22;;;;;;;2.20;2.00;;;24.10;56.10;;;;;;4970041;28;20425;-71
2022/09/01 03:11:51;;;;;;;1.70;1.60;;;24.10;56.10;;;;;;4994127;28;20421;-71
2022/09/01 03:14:23;;;;;;;2.37;1.70;;;24.10;56.10;;;;;;4977749;28;20457;-71
2022/09/01 03:16:52;;;;;;;2.57;1.97;;;24.10;56.20;;;;;;4973729;28;20468;-71
2022/09/01 03:19:19;;;;;;;2.77;1.90;;;24.00;56.20;;;;;;4957044;28;20434;-71
2022/09/01 03:21:47;;;;;;;2.10;1.53;;;24.00;56.20;;;;;;4957172;28;21022;-71
2022/09/01 03:24:38;;;;;;;2.17;1.70;;;24.00;56.20;;;;;;4946896;28;20457;-70
2022/09/01 03:27:04;;;;;;;2.83;1.77;;;24.00;56.20;;;;;;4957039;28;21040;-71
2022/09/01 03:29:30;;;;;;;2.37;2.17;;;24.00;56.20;;;;;;4973434;28;20487;-71
2022/09/01 03:31:57;;;;;;;2.57;2.03;;;24.00;56.20;;;;;;4973231;28;20805;-71
2022/09/01 03:34:23;;;;;;;2.57;2.13;;;24.00;56.30;;;;;;4970004;28;20477;-71
2022/09/01 03:36:51;;;;;;;2.17;1.97;;;24.00;56.30;;;;;;4960865;28;20410;-71
2022/09/01 03:39:26;;;;;;;3.17;1.90;;;24.00;56.30;;;;;;4961371;28;20510;-71
2022/09/01 03:41:57;;;;;;;2.60;2.00;;;23.90;56.20;;;;;;4938521;29;20917;-71
2022/09/01 03:44:35;;;;;;;3.10;2.20;;;23.90;56.30;;;;;;4980360;28;20965;-71
2022/09/01 03:47:09;;;;;;;2.17;1.90;;;23.90;56.30;;;;;;4948952;28;20836;-71
2022/09/01 03:49:38;;;;;;;1.63;1.53;;;23.90;56.30;;;;;;4986462;28;20497;-71
2022/09/01 03:52:07;;;;;;;2.40;1.93;;;23.90;56.30;;;;;;4954513;28;20439;-71
2022/09/01 03:54:34;;;;;;;2.43;1.87;;;23.90;56.40;;;;;;4954938;28;20454;-71
2022/09/01 03:57:00;;;;;;;2.13;1.83;;;23.80;56.30;;;;;;4971361;28;20460;-71
2022/09/01 03:59:28;;;;;;;1.70;1.60;;;23.80;56.30;;;;;;4973132;28;20418;-71
2022/09/01 04:01:55;;;;;;;3.93;2.13;;;23.80;56.30;;;;;;4976998;28;20478;-71
2022/09/01 04:04:21;;;;;;;2.07;1.87;;;23.80;56.30;;;;;;4960849;28;20967;-71
2022/09/01 04:06:50;;;;;;;2.20;2.03;;;23.80;56.40;;;;;;4957208;28;20550;-71
2022/09/01 04:09:16;;;;;;;2.77;1.80;;;23.80;56.30;;;;;;4969640;28;20502;-70
2022/09/01 04:11:47;;;;;;;2.20;1.97;;;23.80;56.30;;;;;;4976892;28;20408;-71
2022/09/01 04:14:16;;;;;;;3.83;2.23;;;23.80;56.30;;;;;;4961047;28;20441;-71
2022/09/01 04:19:33;;;;;;;2.00;1.70;;;23.70;56.40;;;;;;4979879;28;20499;-71
2022/09/01 04:22:02;;;;;;;2.20;1.90;;;23.70;56.40;;;;;;4995983;28;20925;-71
2022/09/01 04:24:41;;;;;;;2.10;1.90;;;23.70;56.40;;;;;;4980397;28;20456;-71
2022/09/01 04:27:09;;;;;;;2.37;2.13;;;23.70;56.40;;;;;;4978879;28;20468;-71
2022/09/01 04:29:40;;;;;;;2.50;1.77;;;23.70;56.40;;;;;;4979916;28;20417;-71
2022/09/01 04:32:10;;;;;;;2.90;2.20;;;23.70;56.50;;;;;;4978771;28;20425;-71
2022/09/01 04:34:41;;;;;;;1.80;1.70;;;23.70;56.50;;;;;;4972529;28;20994;-71
2022/09/01 04:37:17;;;;;;;1.90;1.80;;;23.60;56.40;;;;;;4970029;28;20465;-69
2022/09/01 04:39:55;;;;;;;3.87;1.90;;;23.60;56.40;;;;;;4992946;28;20437;-71
2022/09/01 04:42:27;;;;;;;3.73;1.83;;;23.60;56.40;;;;;;4991755;28;20421;-71
2022/09/01 04:44:56;;;;;;;2.47;1.73;;;23.60;56.40;;;;;;4979166;28;20895;-70
2022/09/01 04:47:33;;;;;;;2.27;2.07;;;23.60;56.40;;;;;;4976488;28;20464;-71
2022/09/01 04:50:03;;;;;;;3.33;2.07;;;23.60;56.40;;;;;;4994536;28;20432;-71
2022/09/01 04:52:30;;;;;;;4.00;1.87;;;23.60;56.50;;;;;;4975949;28;20988;-70
2022/09/01 04:55:02;;;;;;;2.20;2.00;;;23.60;56.40;;;;;;4959296;28;20453;-71
2022/09/01 04:57:30;;;;;;;1.93;1.83;;;23.60;56.40;;;;;;4976277;28;20414;-71
2022/09/01 04:59:58;;;;;;;2.10;1.73;;;23.50;56.40;;;;;;4979209;28;20430;-70
2022/09/01 05:02:27;;;;;;;1.90;1.80;;;23.50;56.40;;;;;;4975091;28;20803;-70
2022/09/01 05:04:57;;;;;;;2.67;2.47;;;23.50;56.40;;;;;;4958662;28;20450;-70
2022/09/01 05:07:28;;;;;;;1.73;1.63;;;23.50;56.50;;;;;;4974683;28;20847;-71
2022/09/01 05:09:58;;;;;;;3.50;2.20;;;23.50;56.50;;;;;;4995346;28;20414;-70
2022/09/01 05:12:46;;;;;;;2.53;2.33;;;23.50;56.50;;;;;;4957199;28;20917;-70
2022/09/01 05:15:14;;;;;;;4.10;1.97;;;23.50;56.50;;;;;;4939533;29;20412;-70
2022/09/01 05:17:41;;;;;;;3.20;2.00;;;23.40;56.50;;;;;;4944647;28;20462;-70
2022/09/01 05:20:09;;;;;;;2.60;1.80;;;23.40;56.50;;;;;;4993889;28;20412;-71
2022/09/01 05:22:36;;;;;;;3.20;2.30;;;23.40;56.50;;;;;;4975517;28;20586;-70
2022/09/01 05:25:13;;;;;;;2.73;2.03;;;23.40;56.50;;;;;;4981216;28;20462;-70
2022/09/01 05:27:51;;;;;;;3.87;2.13;;;23.40;56.50;;;;;;4974354;28;21075;-70
2022/09/01 05:30:19;;;;;;;3.33;2.00;;;23.40;56.50;;;;;;4957922;28;20449;-70
2022/09/01 05:32:47;;;;;;;2.27;2.07;;;23.40;56.60;;;;;;4977288;28;20441;-70
2022/09/01 05:35:14;;;;;;;2.80;1.97;;;23.40;56.60;;;;;;4977918;28;20426;-69
2022/09/01 05:37:44;;;;;;;2.50;1.80;;;23.30;56.50;;;;;;4958142;28;20461;-69
2022/09/01 05:40:14;;;;;;;4.10;2.10;;;23.30;56.50;;;;;;4957692;28;20518;-69
2022/09/01 05:42:46;;;;;;;2.30;1.57;;;23.30;56.50;;;;;;4972788;28;20456;-69
2022/09/01 05:45:21;;;;;;;2.90;1.97;;;23.30;56.60;;;;;;4988696;28;20440;-69
2022/09/01 05:48:12;;;;;;;2.63;2.03;;;23.30;56.60;;;;;;4970590;28;20426;-69
2022/09/01 05:50:41;;;;;;;2.90;2.00;;;23.30;56.60;;;;;;4974066;28;20457;-70
2022/09/01 05:53:17;;;;;;;2.43;2.07;;;23.30;56.60;;;;;;4965183;28;20469;-70
2022/09/01 05:55:47;;;;;;;2.97;2.27;;;23.30;56.70;;;;;;4958171;28;20457;-70
2022/09/01 05:58:16;;;;;;;2.20;2.00;;;23.30;56.70;;;;;;4989424;28;20417;-69
2022/09/01 06:00:45;;;;;;;2.80;1.93;;;23.20;56.60;;;;;;4970293;28;20442;-69
2022/09/01 06:03:13;;;;;;;2.27;1.73;;;23.20;56.60;;;;;;4967804;28;20483;-69
2022/09/01 06:05:47;;;;;;;2.83;2.30;;;23.20;56.70;;;;;;4976472;28;20421;-69
2022/09/01 06:08:14;;;;;;;2.60;1.97;;;23.20;56.70;;;;;;4971232;28;20457;-69
2022/09/01 06:10:41;;;;;;;2.30;2.10;;;23.20;56.70;;;;;;4974855;28;20418;-69
2022/09/01 06:13:08;;;;;;;2.90;2.13;;;23.20;56.70;;;;;;4978281;28;20436;-69
2022/09/01 06:15:37;;;;;;;2.13;1.97;;;23.20;56.70;;;;;;4992227;28;20497;-69
2022/09/01 06:18:14;;;;;;;2.30;2.10;;;23.20;56.80;;;;;;4962376;28;21088;-69
2022/09/01 06:20:49;;;;;;;3.37;2.47;;;23.10;56.70;;;;;;4977412;28;20437;-69
2022/09/01 06:23:19;;;;;;;2.20;2.00;;;23.10;56.70;;;;;;4950621;29;20459;-69
2022/09/01 06:25:48;;;;;;;2.10;2.00;;;23.10;56.80;;;;;;4953326;28;20431;-69
2022/09/01 06:28:18;;;;;;;2.80;2.00;;;23.10;56.90;;;;;;4973115;28;20890;-69
2022/09/01 06:30:46;;;;;;;3.20;2.33;;;23.10;56.90;;;;;;4992426;28;20413;-69
2022/09/01 06:33:18;;;;;;;4.33;2.60;;;23.10;56.90;;;;;;4964023;28;20449;-69
2022/09/01 06:35:46;;;;;;;4.50;2.47;;;23.10;56.90;;;;;;4976212;28;20856;-69
2022/09/01 06:38:20;;;;;;;2.93;2.60;;;23.10;56.90;;;;;;4974764;28;20429;-69
2022/09/01 06:40:48;;;;;;;3.60;3.17;;;23.10;57.00;;;;;;4974491;28;20460;-69
2022/09/01 06:43:15;;;;;;;4.80;2.40;;;23.10;57.00;;;;;;4991970;28;20440;-69
2022/09/01 06:45:53;;;;;;;2.13;1.93;;;23.10;57.10;;;;;;4950832;28;20769;-69
2022/09/01 06:48:22;;;;;;;2.83;2.40;;;23.10;57.10;;;;;;4956705;28;20464;-70
2022/09/01 06:50:50;;;;;;;4.93;2.13;;;23.10;57.10;;;;;;4956949;28;20431;-70
2022/09/01 06:53:17;;;;;;;3.30;2.10;;;23.10;57.20;;;;;;4972499;28;20434;-71
2022/09/01 06:55:48;;;;;;;3.43;2.10;;;23.00;57.10;;;;;;4970027;28;20439;-73
2022/09/01 06:58:17;;;;;;;3.20;2.17;;;23.00;57.20;;;;;;4990122;28;20405;-73
2022/09/01 07:00:49;;;;;;;2.60;2.33;;;23.00;57.10;;;;;;4949173;28;20445;-74
2022/09/01 07:03:16;;;;;;;2.37;2.07;;;23.00;57.20;;;;;;4990183;28;20448;-73
2022/09/01 07:05:59;;;;;;;5.67;2.23;;;23.00;57.20;;;;;;4972264;28;20450;-73
2022/09/01 07:08:48;;;;;;;3.20;2.43;;;23.10;57.30;;;;;;4977436;28;20795;-73
2022/09/01 07:11:35;;;;;;;4.90;1.97;;;23.10;57.30;;;;;;4991241;28;20420;-73
2022/09/01 07:14:04;;;;;;;2.80;2.10;;;23.00;57.30;;;;;;4961484;28;20553;-73
2022/09/01 07:16:38;;;;;;;2.90;1.90;;;23.00;57.30;;;;;;4956541;28;20801;-73
2022/09/01 07:19:13;;;;;;;2.50;2.13;;;23.00;57.30;;;;;;4975431;28;20480;-73
2022/09/01 07:21:46;;;;;;;3.30;2.40;;;23.00;57.30;;;;;;4991689;28;20406;-71
2022/09/01 07:24:17;;;;;;;3.10;2.20;;;23.00;57.30;;;;;;4985716;28;20822;-71
2022/09/01 07:27:09;;;;;;;3.00;2.50;;;23.00;57.30;;;;;;4969162;28;20993;-71
2022/09/01 07:29:40;;;;;;;4.20;2.03;;;23.00;57.30;;;;;;4964529;28;20968;-71
2022/09/01 07:32:09;;;;;;;4.60;2.00;;;23.00;57.30;;;;;;4936750;29;20427;-72
2022/09/01 07:34:40;;;;;;;2.50;2.30;;;23.00;57.30;;;;;;4985123;28;20467;-71
2022/09/01 07:37:10;;;;;;;2.43;2.17;;;23.00;57.30;;;;;;4989166;28;20453;-72
2022/09/01 07:39:44;;;;;;;3.40;2.27;;;23.00;57.40;;;;;;4987461;28;20481;-71
2022/09/01 07:42:38;;;;;;;2.87;2.40;;;23.00;57.40;;;;;;4969755;28;20447;-72
2022/09/01 07:45:24;;;;;;;3.37;2.67;;;23.00;57.30;;;;;;4982227;28;20419;-71
2022/09/01 07:48:06;;;;;;;4.07;2.20;;;23.00;57.30;;;;;;4955367;28;20473;-72
2022/09/01 07:50:46;;;;;;;2.20;1.83;;;23.00;57.30;;;;;;4965754;28;20421;-71
2022/09/01 07:53:17;;;;;;;3.30;2.30;;;23.00;57.30;;;;;;4964010;28;20480;-71
2022/09/01 07:55:48;;;;;;;3.67;2.10;;;23.00;57.20;;;;;;4953665;28;20403;-72
2022/09/01 07:58:22;;;;;;;2.17;1.97;;;23.00;57.20;;;;;;4965714;28;20425;-71
2022/09/01 08:00:54;;;;;;;2.57;2.10;;;23.00;57.10;;;;;;4978505;28;20445;-71
2022/09/01 08:03:26;;;;;;;2.30;2.00;;;23.00;57.10;;;;;;4954640;28;20924;-73
2022/09/01 08:06:06;;;;;;;4.57;2.10;;;23.00;57.10;;;;;;4971483;28;20743;-74
2022/09/01 08:08:34;;;;;;;3.13;2.23;;;23.00;57.10;;;;;;4946099;29;20825;-73
2022/09/01 08:11:01;;;;;;;3.93;2.77;;;23.00;57.00;;;;;;4938370;29;20441;-73
2022/09/01 08:13:31;;;;;;;2.90;2.00;;;23.00;57.00;;;;;;4967129;28;20539;-73
2022/09/01 08:15:56;;;;;;;2.13;1.80;;;23.00;56.90;;;;;;4990928;28;20410;-71
2022/09/01 08:18:24;;;;;;;2.30;2.10;;;23.00;56.90;;;;;;5027511;23;20498;-67
2022/09/01 08:20:50;;;;;;;3.53;2.73;;;23.00;56.90;;;;;;4938808;28;21139;-67
2022/09/01 08:23:36;;;;;;;3.17;2.37;;;23.00;56.80;;;;;;4972967;28;20418;-67
2022/09/01 08:26:13;;;;;;;2.17;1.90;;;23.00;56.80;;;;;;4939207;28;20531;-68
2022/09/01 08:28:44;;;;;;;1.80;1.70;;;23.00;56.80;;;;;;4953575;28;20455;-69
2022/09/01 08:31:17;;;;;;;3.30;2.10;;;23.00;56.80;;;;;;4935241;28;20465;-68
2022/09/01 08:33:59;;;;;;;2.60;1.93;;;23.10;56.80;;;;;;4982229;28;20445;-68
2022/09/01 08:36:25;;;;;;;2.10;1.90;;;23.10;56.80;;;;;;4936538;29;20762;-68
2022/09/01 08:38:54;;;;;;;3.10;2.03;;;23.10;56.80;;;;;;4922018;28;20441;-68
2022/09/01 08:41:39;;;;;;;2.27;2.07;;;23.10;56.70;;;;;;4940692;28;20938;-68
2022/09/01 08:44:09;;;;;;;3.50;2.90;;;23.10;56.60;;;;;;4953923;28;20458;-68
2022/09/01 08:46:40;;;;;;;2.20;2.00;;;23.10;56.50;;;;;;4939836;28;20461;-68
2022/09/01 08:49:12;;;;;;;4.00;1.80;;;23.20;56.60;;;;;;4987425;28;20514;-67
2022/09/01 08:52:36;;;;;;;2.00;1.90;;;23.20;56.60;;;;;;4956712;29;20423;-67
2022/09/01 08:55:15;;;;;;;2.23;2.03;;;23.20;56.50;;;;;;4936896;28;20778;-68
2022/09/01 08:57:44;;;;;;;2.80;1.80;;;23.20;56.40;;;;;;4956695;28;20516;-68
2022/09/01 09:00:23;;;;;;;2.83;2.10;;;23.20;56.40;;;;;;4977269;28;20454;-68
2022/09/01 09:03:43;;;;;;;2.70;1.80;;;23.30;56.30;;;;;;4990679;28;20470;-68
2022/09/01 09:06:56;;;;;;;3.43;2.30;;;23.30;56.20;;;;;;4937565;29;20485;-67
2022/09/01 09:09:37;;;;;;;1.63;1.53;;;23.30;56.00;;;;;;4965037;28;20845;-68
2022/09/01 09:12:11;;;;;;;2.03;1.83;;;23.30;56.00;;;;;;4991266;28;20476;-68
2022/09/01 09:15:11;;;;;;;2.13;1.60;;;23.30;55.90;;;;;;4965800;28;20507;-68
2022/09/01 09:17:44;;;;;;;2.27;1.63;;;23.40;55.80;;;;;;4975676;28;20399;-69
2022/09/01 09:20:12;;;;;;;2.23;1.90;;;23.40;55.70;;;;;;4960551;28;21005;-69
2022/09/01 09:22:43;;;;;;;2.40;1.70;;;23.40;55.50;;;;;;4939140;29;20403;-68
2022/09/01 09:25:15;;;;;;;2.30;2.10;;;23.40;55.40;;;;;;4953642;28;20450;-68
2022/09/01 09:27:48;;;;;;;2.00;1.80;;;23.50;55.40;;;;;;4939234;29;20451;-68
2022/09/01 09:30:25;;;;;;;2.40;1.70;;;23.50;55.30;;;;;;4951392;28;20434;-67
2022/09/01 09:32:51;;;;;;;1.73;1.63;;;23.60;55.20;;;;;;4955015;29;20920;-68
2022/09/01 09:35:37;;;;;;;1.70;1.60;;;23.60;55.10;;;;;;4935576;29;20555;-68
2022/09/01 09:38:18;;;;;;;2.20;2.00;;;23.60;55.00;;;;;;4939124;29;20909;-68
2022/09/01 09:40:58;;;;;;;4.73;1.70;;;23.60;55.00;;;;;;4942060;28;20513;-69
2022/09/01 09:43:32;;;;;;;1.70;1.60;;;23.70;54.90;;;;;;4966490;28;20467;-69
2022/09/01 09:46:35;;;;;;;2.83;1.60;;;23.70;54.80;;;;;;4984996;28;20765;-69
2022/09/01 09:49:34;;;;;;;1.60;1.50;;;23.70;54.70;;;;;;4937240;28;20979;-69
2022/09/01 09:52:14;;;;;;;2.77;1.47;;;23.80;54.70;;;;;;4943098;28;20426;-69
2022/09/01 09:54:58;;;;;;;5.53;1.70;;;23.80;54.50;;;;;;4973341;28;20453;-68
2022/09/01 09:57:28;;;;;;;2.13;1.70;;;23.80;54.50;;;;;;4974600;28;20437;-68
2022/09/01 10:00:06;;;;;;;1.80;1.53;;;23.90;54.50;;;;;;4953433;28;20466;-69
2022/09/01 10:02:47;;;;;;;1.27;1.17;;;23.90;54.40;;;;;;4954478;29;20842;-68
2022/09/01 10:05:44;;;;;;;1.70;1.60;;;23.90;54.40;;;;;;4962741;28;21342;-68
2022/09/01 10:08:14;;;;;;;1.80;1.70;;;24.00;54.30;;;;;;4938402;29;20501;-69
2022/09/01 10:10:50;;;;;;;2.10;1.50;;;24.00;54.30;;;;;;4954618;28;20546;-69
2022/09/01 10:13:22;;;;;;;1.90;1.80;;;24.00;54.30;;;;;;4938271;29;20505;-68
2022/09/01 10:16:03;;;;;;;1.40;1.30;;;24.00;54.20;;;;;;4964556;28;20427;-68
2022/09/01 10:18:35;;;;;;;2.07;1.77;;;24.10;54.70;;;;;;4922804;28;20446;-68
2022/09/01 10:21:13;;;;;;;1.80;1.50;;;24.10;54.10;;;;;;4989506;28;20417;-69
2022/09/01 10:23:44;;;;;;;2.33;1.70;;;24.10;54.00;;;;;;4981035;28;20525;-69
2022/09/01 10:26:32;;;;;;;1.73;1.60;;;24.20;54.10;;;;;;4974597;28;21029;-70
2022/09/01 10:29:13;;;;;;;2.33;1.80;;;24.20;54.00;;;;;;4943869;28;20422;-69
2022/09/01 10:31:43;;;;;;;1.83;1.67;;;24.20;53.90;;;;;;4993947;28;20431;-68
2022/09/01 10:34:16;;;;;;;1.70;1.57;;;24.30;53.90;;;;;;4969980;28;20970;-69
2022/09/01 10:36:46;;;;;;;2.20;1.60;;;24.30;53.90;;;;;;4974386;28;20434;-69
2022/09/01 10:39:17;;;;;;;2.43;1.80;;;24.30;53.80;;;;;;4968384;28;20765;-69
2022/09/01 10:41:55;;;;;;;2.40;2.20;;;24.40;53.80;;;;;;4937961;29;20777;-69
2022/09/01 10:44:37;;;;;;;2.70;1.50;;;24.40;53.70;;;;;;4951638;28;20449;-68
2022/09/01 10:47:28;;;;;;;1.93;1.40;;;24.40;53.60;;;;;;4937442;29;20446;-69
2022/09/01 10:50:02;;;;;;;1.90;1.80;;;24.50;53.80;;;;;;4946772;28;20445;-68
2022/09/01 10:52:43;;;;;;;1.80;1.30;;;24.50;53.70;;;;;;4958941;28;20414;-69
2022/09/01 10:55:36;;;;;;;1.87;1.63;;;24.60;53.70;;;;;;4973764;28;20481;-69
2022/09/01 10:58:34;;;;;;;1.90;1.50;;;24.60;53.60;;;;;;4939962;29;20435;-69
2022/09/01 11:01:01;;;;;;;1.70;1.60;;;24.60;53.60;;;;;;4973332;28;20501;-69
2022/09/01 11:03:37;;;;;;;1.73;1.63;;;24.70;53.50;;;;;;4958510;28;20453;-69
2022/09/01 11:06:06;;;;;;;1.43;1.33;;;24.70;53.50;;;;;;4971842;28;20458;-69
2022/09/01 11:08:44;;;;;;;1.70;1.60;;;24.70;53.50;;;;;;4956055;28;20414;-69
2022/09/01 11:11:25;;;;;;;2.00;1.80;;;24.80;53.60;;;;;;4965591;28;20422;-69
2022/09/01 11:13:57;;;;;;;1.40;1.30;;;24.80;53.50;;;;;;4956475;28;20442;-69
2022/09/01 11:16:41;;;;;;;3.53;1.77;;;24.80;53.50;;;;;;4946326;29;20431;-69
2022/09/01 11:19:38;;;;;;;1.40;1.30;;;24.90;53.50;;;;;;4942689;28;20974;-69
2022/09/01 11:22:12;;;;;;;2.53;1.70;;;24.90;53.40;;;;;;4955503;28;20499;-69
2022/09/01 11:24:43;;;;;;;3.00;2.10;;;24.90;53.40;;;;;;4972768;28;20504;-69
2022/09/01 11:27:50;;;;;;;1.90;1.70;;;25.00;53.40;;;;;;4967237;28;20470;-70
2022/09/01 11:30:34;;;;;;;2.20;1.73;;;25.00;53.30;;;;;;4937923;28;20963;-70
2022/09/01 11:33:41;;;;;;;1.40;1.30;;;25.00;53.30;;;;;;4971995;28;20449;-69
2022/09/01 11:36:22;;;;;;;5.37;2.00;;;25.00;53.10;;;;;;4955212;28;20463;-69
2022/09/01 11:38:52;;;;;;;2.63;1.80;;;25.10;53.10;;;;;;4972792;28;20834;-69
2022/09/01 11:41:32;;;;;;;2.20;1.80;;;25.10;53.00;;;;;;4939769;28;20446;-69
2022/09/01 11:44:10;;;;;;;1.77;1.40;;;25.10;52.80;;;;;;4945447;29;20517;-71
2022/09/01 11:46:42;;;;;;;2.03;1.93;;;25.20;52.70;;;;;;4921247;29;20459;-71
2022/09/01 11:49:28;;;;;;;1.90;1.80;;;25.20;52.90;;;;;;4947739;28;20485;-70
2022/09/01 11:52:00;;;;;;;2.10;1.90;;;25.20;53.60;;;;;;4971016;28;20915;-69
2022/09/01 11:54:28;;;;;;;2.93;2.07;;;25.30;53.10;;;;;;4920362;29;20851;-69
2022/09/01 11:56:55;;;;;;;2.10;1.77;;;25.30;53.10;;;;;;4950770;28;20427;-69
2022/09/01 11:59:37;;;;;;;2.00;1.80;;;25.30;52.90;;;;;;4960021;28;20430;-69
2022/09/01 12:02:04;;;;;;;2.00;1.80;;;25.40;52.90;;;;;;4952987;28;20999;-69
2022/09/01 12:04:38;;;;;;;1.80;1.70;;;25.40;53.00;;;;;;4950687;29;20963;-69
2022/09/01 12:07:13;;;;;;;1.80;1.60;;;25.40;52.90;;;;;;4944442;28;20465;-69
2022/09/01 12:09:43;;;;;;;1.93;1.73;;;25.40;52.90;;;;;;4968173;28;20449;-69
2022/09/01 12:12:38;;;;;;;2.50;1.60;;;25.40;52.80;;;;;;4936781;29;20899;-69
2022/09/01 12:15:17;;;;;;;2.27;2.07;;;25.50;52.80;;;;;;4953296;29;20434;-69
2022/09/01 12:17:43;;;;;;;2.00;1.80;;;25.50;52.70;;;;;;4953849;28;20443;-69
2022/09/01 12:20:27;;;;;;;2.23;1.80;;;25.50;52.70;;;;;;4959084;28;20434;-69
2022/09/01 12:22:54;;;;;;;3.60;2.20;;;25.60;52.60;;;;;;4956578;28;20464;-69
2022/09/01 12:25:32;;;;;;;2.87;2.00;;;25.60;52.60;;;;;;4935469;29;20502;-70
2022/09/01 12:28:07;;;;;;;3.83;2.27;;;25.60;53.00;;;;;;4939475;29;20489;-70
2022/09/01 12:30:34;;;;;;;2.30;2.10;;;25.60;52.50;;;;;;4940840;28;20434;-69
2022/09/01 12:33:06;;;;;;;2.40;2.03;;;25.60;52.60;;;;;;4957096;29;20443;-69
2022/09/01 12:35:34;;;;;;;1.93;1.70;;;25.70;52.60;;;;;;4962783;28;20505;-69
2022/09/01 12:38:33;;;;;;;1.80;1.70;;;25.70;52.70;;;;;;4994360;28;20413;-69
2022/09/01 12:41:01;;;;;;;2.47;2.00;;;25.80;52.70;;;;;;4934587;28;20458;-70
2022/09/01 12:43:38;;;;;;;2.33;2.03;;;25.80;52.70;;;;;;4990805;28;20445;-69
2022/09/01 12:46:09;;;;;;;2.30;2.10;;;25.80;52.50;;;;;;4975383;28;20507;-69
2022/09/01 12:48:40;;;;;;;2.20;2.10;;;25.80;52.30;;;;;;4958588;28;20426;-70
2022/09/01 12:51:27;;;;;;;2.13;2.00;;;25.90;52.30;;;;;;4958190;28;20460;-70
2022/09/01 12:53:56;;;;;;;2.97;1.90;;;25.90;52.40;;;;;;4958689;28;20536;-69
2022/09/01 12:56:33;;;;;;;1.83;1.73;;;25.90;52.40;;;;;;4939760;29;20554;-69
2022/09/01 12:59:10;;;;;;;3.43;2.03;;;25.90;52.50;;;;;;4956745;28;20421;-70
2022/09/01 13:01:40;;;;;;;2.07;1.97;;;26.00;52.40;;;;;;4950857;29;20430;-69
2022/09/01 13:04:14;;;;;;;2.13;1.90;;;26.00;52.40;;;;;;4944828;28;20459;-69
2022/09/01 13:06:40;;;;;;;2.87;2.50;;;26.00;52.40;;;;;;4926726;28;20469;-69
2022/09/01 13:09:07;;;;;;;1.90;1.80;;;26.00;52.30;;;;;;4973678;28;20631;-69
2022/09/01 13:11:35;;;;;;;5.33;2.60;;;26.10;52.20;;;;;;4942920;28;20434;-70
2022/09/01 13:14:18;;;;;;;4.40;2.20;;;26.10;52.00;;;;;;4957574;28;21013;-69
2022/09/01 13:16:49;;;;;;;1.90;1.80;;;26.10;52.10;;;;;;4938289;29;20549;-70
2022/09/01 13:19:17;;;;;;;1.73;1.63;;;26.20;52.10;;;;;;4933400;28;20449;-69
2022/09/01 13:21:46;;;;;;;2.63;2.23;;;26.20;52.10;;;;;;4953361;29;20478;-70
2022/09/01 13:24:12;;;;;;;2.30;2.10;;;26.20;52.00;;;;;;4936493;28;20490;-69
2022/09/01 13:26:38;;;;;;;2.20;2.00;;;26.30;52.10;;;;;;4947525;28;20480;-70
2022/09/01 13:29:08;;;;;;;1.80;1.70;;;26.30;51.90;;;;;;4936227;28;20450;-70